Time;durP1;ratioP1;P1;durP2;ratioP2;P2;SDS_P1;SDS_P2;PMS_P1;PMS_P2;Temp;Humidity;BMP_temperature;BMP_pressure;BME280_temperature;BME280_humidity;BME280_pressure;Samples;Min_cycle;Max_cycle;Signal;HPM_P1;HPM_P2
2022/12/26 00:01:46;;;;;;;59.93;4.43;;;;;;;;;;5033262;28;20476;-74
2022/12/26 00:04:13;;;;;;;60.30;4.67;;;;;;;;;;5033238;28;20477;-73
2022/12/26 00:06:42;;;;;;;59.13;4.20;;;;;;;;;;5033378;28;20452;-73
2022/12/26 00:09:09;;;;;;;59.50;4.10;;;;;;;;;;5032145;28;20453;-74
2022/12/26 00:11:36;;;;;;;60.07;5.10;;;;;;;;;;5033104;28;20469;-74
2022/12/26 00:14:05;;;;;;;60.10;5.10;;;;;;;;;;5033029;28;21048;-74
2022/12/26 00:16:32;;;;;;;58.90;4.00;;;;;;;;;;5032982;28;20457;-73
2022/12/26 00:18:59;;;;;;;59.83;4.27;;;;;;;;;;5032068;28;20453;-74
2022/12/26 00:21:27;;;;;;;59.90;4.40;;;;;;;;;;5032257;28;20465;-73
2022/12/26 00:23:56;;;;;;;59.60;4.17;;;;;;;;;;5029554;28;21013;-73
2022/12/26 00:26:24;;;;;;;59.57;4.23;;;;;;;;;;5033091;28;20461;-74
2022/12/26 00:28:51;;;;;;;60.20;4.50;;;;;;;;;;5032015;28;20449;-73
2022/12/26 00:31:20;;;;;;;59.80;4.73;;;;;;;;;;5032613;28;20557;-73
2022/12/26 00:33:48;;;;;;;59.47;4.60;;;;;;;;;;5032828;28;20456;-73
2022/12/26 00:36:16;;;;;;;60.47;4.67;;;;;;;;;;5032588;28;20457;-73
2022/12/26 00:38:44;;;;;;;60.00;4.47;;;;;;;;;;5031873;28;20457;-73
2022/12/26 00:41:13;;;;;;;60.77;4.73;;;;;;;;;;5032471;28;20484;-73
2022/12/26 00:43:40;;;;;;;58.80;4.03;;;;;;;;;;5032476;28;20489;-73
2022/12/26 00:46:07;;;;;;;58.77;4.00;;;;;;;;;;5032421;28;20840;-74
2022/12/26 00:48:35;;;;;;;58.50;3.93;;;;;;;;;;5031991;28;20464;-73
2022/12/26 00:51:02;;;;;;;59.27;4.43;;;;;;;;;;5032437;28;20646;-73
2022/12/26 00:53:29;;;;;;;61.40;4.90;;;;;;;;;;5031996;28;20474;-73
2022/12/26 00:55:56;;;;;;;59.67;4.50;;;;;;;;;;5028538;28;20817;-73
2022/12/26 00:58:25;;;;;;;59.27;4.70;;;;;;;;;;5032102;28;20460;-73
2022/12/26 01:00:52;;;;;;;59.37;4.37;;;;;;;;;;5031680;28;20477;-73
2022/12/26 01:03:20;;;;;;;59.57;4.20;;;;;;;;;;5032311;28;20449;-73
2022/12/26 01:05:49;;;;;;;59.47;5.03;;;;;;;;;;5032189;28;20444;-74
2022/12/26 01:08:16;;;;;;;59.00;4.00;;;;;;;;;;5031950;28;20449;-73
2022/12/26 01:10:44;;;;;;;60.27;4.70;;;;;;;;;;5031324;28;20473;-73
2022/12/26 01:13:11;;;;;;;61.80;4.50;;;;;;;;;;5031784;28;20461;-74
2022/12/26 01:15:39;;;;;;;59.90;4.70;;;;;;;;;;5032098;28;20557;-73
2022/12/26 01:18:07;;;;;;;59.17;4.40;;;;;;;;;;5032093;28;20479;-73
2022/12/26 01:20:34;;;;;;;58.97;4.13;;;;;;;;;;5031319;28;20469;-74
2022/12/26 01:23:01;;;;;;;59.50;4.23;;;;;;;;;;5031921;28;20453;-74
2022/12/26 01:25:28;;;;;;;60.30;4.80;;;;;;;;;;5031693;28;20576;-73
2022/12/26 01:27:56;;;;;;;59.00;4.30;;;;;;;;;;5027721;28;20901;-73
2022/12/26 01:30:23;;;;;;;60.17;4.53;;;;;;;;;;5031148;28;20461;-73
2022/12/26 01:32:51;;;;;;;58.80;3.97;;;;;;;;;;5031869;28;20953;-73
2022/12/26 01:35:19;;;;;;;62.70;4.77;;;;;;;;;;5031735;28;20445;-73
2022/12/26 01:37:46;;;;;;;61.33;4.27;;;;;;;;;;5031982;28;20444;-74
2022/12/26 01:40:13;;;;;;;60.90;4.70;;;;;;;;;;5030638;28;20449;-74
2022/12/26 01:42:41;;;;;;;60.07;4.40;;;;;;;;;;5031728;28;20952;-73
2022/12/26 01:45:21;;;;;;;60.00;4.70;;;;;;;;;;5031638;28;20861;-73
2022/12/26 01:47:50;;;;;;;59.83;4.10;;;;;;;;;;5031564;28;20449;-73
2022/12/26 01:50:28;;;;;;;59.27;4.53;;;;;;;;;;5030606;28;20445;-73
2022/12/26 01:52:56;;;;;;;61.90;4.40;;;;;;;;;;5031371;28;20449;-73
2022/12/26 01:55:23;;;;;;;58.83;3.97;;;;;;;;;;5031597;28;20444;-73
2022/12/26 01:57:53;;;;;;;58.90;3.97;;;;;;;;;;5031507;28;20445;-73
2022/12/26 02:00:20;;;;;;;58.60;4.30;;;;;;;;;;5026836;28;20457;-73
2022/12/26 02:05:34;;;;;;;59.70;4.40;;;;;;;;;;5033493;28;20564;-73
2022/12/26 02:08:03;;;;;;;59.70;4.27;;;;;;;;;;5035480;28;20445;-74
2022/12/26 02:10:32;;;;;;;60.30;4.37;;;;;;;;;;5034787;28;20473;-73
2022/12/26 02:12:59;;;;;;;59.30;4.40;;;;;;;;;;5035506;28;20829;-73
2022/12/26 02:15:26;;;;;;;59.47;4.53;;;;;;;;;;5035096;28;20445;-74
2022/12/26 02:17:53;;;;;;;58.97;4.10;;;;;;;;;;5035145;28;20456;-73
2022/12/26 02:20:23;;;;;;;59.37;4.30;;;;;;;;;;5034624;28;20445;-73
2022/12/26 02:23:05;;;;;;;59.40;4.00;;;;;;;;;;5033886;28;20453;-73
2022/12/26 02:25:41;;;;;;;59.93;4.33;;;;;;;;;;5002112;28;20489;-73
2022/12/26 02:28:25;;;;;;;58.33;3.63;;;;;;;;;;5035294;28;20448;-73
2022/12/26 02:30:56;;;;;;;59.00;4.10;;;;;;;;;;5033582;28;20492;-73
2022/12/26 02:33:34;;;;;;;59.77;4.20;;;;;;;;;;5031815;28;20941;-73
2022/12/26 02:36:22;;;;;;;58.77;4.20;;;;;;;;;;5034983;28;20459;-74
2022/12/26 02:38:56;;;;;;;59.93;4.10;;;;;;;;;;5028025;28;20467;-73
2022/12/26 02:41:25;;;;;;;58.67;3.80;;;;;;;;;;5034735;28;20468;-74
2022/12/26 02:43:58;;;;;;;59.30;4.03;;;;;;;;;;5034543;28;20445;-74
2022/12/26 02:49:20;;;;;;;59.30;4.20;;;;;;;;;;5033913;28;20425;-73
2022/12/26 03:14:13;;;;;;;60.93;4.53;;;;;;;;;;5034371;28;20479;-74
2022/12/26 03:19:28;;;;;;;60.97;4.10;;;;;;;;;;5033344;28;20452;-73
2022/12/26 03:21:56;;;;;;;58.87;4.07;;;;;;;;;;5034238;28;20788;-73
2022/12/26 03:24:24;;;;;;;59.30;4.10;;;;;;;;;;5034085;28;20484;-73
2022/12/26 03:26:51;;;;;;;60.07;4.30;;;;;;;;;;5034217;28;20544;-73
2022/12/26 03:32:05;;;;;;;58.77;3.97;;;;;;;;;;5033843;28;20455;-73
2022/12/26 03:34:34;;;;;;;59.50;4.60;;;;;;;;;;5033010;28;20452;-73
2022/12/26 03:37:19;;;;;;;59.20;4.60;;;;;;;;;;5030749;28;20449;-73
2022/12/26 04:19:32;;;;;;;61.30;4.60;;;;;;;;;;5032325;28;20456;-73
2022/12/26 04:44:23;;;;;;;59.30;4.03;;;;;;;;;;5032569;28;20476;-74
2022/12/26 04:46:51;;;;;;;59.40;4.30;;;;;;;;;;5032287;28;20548;-73
2022/12/26 04:52:04;;;;;;;58.67;3.70;;;;;;;;;;5032464;28;20444;-73
2022/12/26 04:54:32;;;;;;;62.10;4.20;;;;;;;;;;5032229;28;20452;-74
2022/12/26 04:57:00;;;;;;;60.57;4.00;;;;;;;;;;5032414;28;20921;-74
2022/12/26 04:59:27;;;;;;;59.47;4.80;;;;;;;;;;5031359;28;20449;-73
2022/12/26 05:10:14;;;;;;;59.67;4.30;;;;;;;;;;5029320;28;20448;-73
2022/12/26 05:12:43;;;;;;;59.47;4.20;;;;;;;;;;5051967;28;20445;-73
2022/12/26 05:15:10;;;;;;;60.17;4.60;;;;;;;;;;5051774;28;20969;-73
2022/12/26 05:28:42;;;;;;;59.10;4.47;;;;;;;;;;5051061;28;20424;-74
2022/12/26 05:31:09;;;;;;;59.43;4.40;;;;;;;;;;5051564;28;20542;-73
2022/12/26 05:36:22;;;;;;;59.27;4.47;;;;;;;;;;5051783;28;20563;-73
2022/12/26 05:38:50;;;;;;;59.27;4.17;;;;;;;;;;5050400;28;21182;-74
2022/12/26 05:41:17;;;;;;;58.87;4.10;;;;;;;;;;5050600;28;20522;-73
2022/12/26 05:43:45;;;;;;;59.90;4.23;;;;;;;;;;5030126;28;20464;-74
2022/12/26 05:46:12;;;;;;;59.80;4.33;;;;;;;;;;5031433;28;20488;-73
2022/12/26 05:48:40;;;;;;;59.60;4.37;;;;;;;;;;5030837;28;20449;-73
2022/12/26 05:51:07;;;;;;;61.53;4.40;;;;;;;;;;5031424;28;20473;-74
2022/12/26 05:53:34;;;;;;;60.17;4.23;;;;;;;;;;5031343;28;20866;-74
2022/12/26 05:56:05;;;;;;;60.27;4.83;;;;;;;;;;5031671;28;20810;-74
2022/12/26 05:58:32;;;;;;;60.40;4.50;;;;;;;;;;5030967;28;20456;-73
2022/12/26 06:01:08;;;;;;;61.67;4.63;;;;;;;;;;5031440;28;20473;-74
2022/12/26 06:03:35;;;;;;;60.90;4.67;;;;;;;;;;5031202;28;20535;-73
2022/12/26 06:06:02;;;;;;;58.90;4.70;;;;;;;;;;5031347;28;20997;-73
2022/12/26 06:08:29;;;;;;;59.20;4.30;;;;;;;;;;5031273;28;20453;-73
2022/12/26 06:10:56;;;;;;;59.10;4.27;;;;;;;;;;5031298;28;20500;-73
2022/12/26 06:13:24;;;;;;;61.00;4.40;;;;;;;;;;5028114;28;20452;-74
2022/12/26 06:15:51;;;;;;;59.30;4.30;;;;;;;;;;5051118;28;20801;-73
2022/12/26 06:18:19;;;;;;;59.83;4.17;;;;;;;;;;5051109;28;20452;-73
2022/12/26 06:20:46;;;;;;;59.40;4.60;;;;;;;;;;5050297;28;20985;-73
2022/12/26 06:23:14;;;;;;;59.80;4.70;;;;;;;;;;5051295;28;20454;-74
2022/12/26 06:25:41;;;;;;;59.67;4.30;;;;;;;;;;5051141;28;20500;-73
2022/12/26 06:28:08;;;;;;;59.43;4.40;;;;;;;;;;5051136;28;20952;-73
2022/12/26 06:30:35;;;;;;;60.40;3.83;;;;;;;;;;5050123;28;20486;-73
2022/12/26 06:33:02;;;;;;;59.67;4.20;;;;;;;;;;5050898;28;20540;-73
2022/12/26 06:35:34;;;;;;;58.90;4.13;;;;;;;;;;5051183;28;20464;-73
2022/12/26 06:38:01;;;;;;;59.30;3.97;;;;;;;;;;5051135;28;20838;-73
2022/12/26 06:40:28;;;;;;;59.57;4.40;;;;;;;;;;5050223;28;20471;-73
2022/12/26 06:42:55;;;;;;;60.10;4.17;;;;;;;;;;5050924;28;20451;-73
2022/12/26 06:45:22;;;;;;;60.70;4.17;;;;;;;;;;5043063;28;20480;-73
2022/12/26 06:47:49;;;;;;;59.57;3.70;;;;;;;;;;5031258;28;20464;-73
2022/12/26 06:50:16;;;;;;;60.17;4.00;;;;;;;;;;5044498;28;20451;-73
2022/12/26 06:52:45;;;;;;;62.80;4.57;;;;;;;;;;5054257;28;20449;-73
2022/12/26 06:55:12;;;;;;;62.70;4.60;;;;;;;;;;5054473;28;20440;-73
2022/12/26 06:57:39;;;;;;;61.63;4.30;;;;;;;;;;5054537;28;20447;-73
2022/12/26 07:00:07;;;;;;;59.13;3.70;;;;;;;;;;5053355;28;20459;-73
2022/12/26 07:02:34;;;;;;;58.90;3.60;;;;;;;;;;5054759;28;20524;-73
2022/12/26 07:05:01;;;;;;;58.57;4.17;;;;;;;;;;5054094;28;20480;-74
2022/12/26 07:07:28;;;;;;;58.70;3.97;;;;;;;;;;5054622;28;20474;-74
2022/12/26 07:09:57;;;;;;;61.27;4.30;;;;;;;;;;5039431;28;20456;-74
2022/12/26 07:12:24;;;;;;;60.40;4.40;;;;;;;;;;5034643;28;20475;-74
2022/12/26 07:14:51;;;;;;;61.13;4.40;;;;;;;;;;5034274;28;20453;-73
2022/12/26 07:17:18;;;;;;;59.77;4.50;;;;;;;;;;5030510;28;20449;-74
2022/12/26 07:19:45;;;;;;;60.07;4.20;;;;;;;;;;5033626;28;20457;-73
2022/12/26 07:22:12;;;;;;;60.93;4.23;;;;;;;;;;5034160;28;21007;-74
2022/12/26 07:24:39;;;;;;;59.33;4.60;;;;;;;;;;5034007;28;20460;-74
2022/12/26 07:27:08;;;;;;;59.57;4.60;;;;;;;;;;5033866;28;20453;-74
2022/12/26 07:29:35;;;;;;;58.80;4.20;;;;;;;;;;5032920;28;20448;-74
2022/12/26 07:32:02;;;;;;;59.00;4.00;;;;;;;;;;5033323;28;20485;-75
2022/12/26 07:34:29;;;;;;;58.87;4.20;;;;;;;;;;5034010;28;20485;-74
2022/12/26 07:36:56;;;;;;;60.87;4.50;;;;;;;;;;5033868;28;20460;-74
2022/12/26 07:39:24;;;;;;;59.77;3.80;;;;;;;;;;5032991;28;20455;-74
2022/12/26 07:42:00;;;;;;;59.73;4.30;;;;;;;;;;5032712;28;20477;-73
2022/12/26 07:44:29;;;;;;;59.37;4.20;;;;;;;;;;5032937;28;20484;-74
2022/12/26 07:46:56;;;;;;;58.77;4.00;;;;;;;;;;5033539;28;21034;-74
2022/12/26 07:49:24;;;;;;;59.80;4.60;;;;;;;;;;5030200;28;20453;-74
2022/12/26 07:51:52;;;;;;;59.40;4.13;;;;;;;;;;5033553;28;20473;-74
2022/12/26 07:54:19;;;;;;;61.97;4.47;;;;;;;;;;5033329;28;20963;-73
2022/12/26 07:56:46;;;;;;;58.90;4.10;;;;;;;;;;5033728;28;20544;-73
2022/12/26 07:59:14;;;;;;;59.77;4.07;;;;;;;;;;5032782;28;20461;-73
2022/12/26 08:01:43;;;;;;;59.40;4.30;;;;;;;;;;5033314;28;21125;-73
2022/12/26 08:04:10;;;;;;;59.77;4.43;;;;;;;;;;5032613;28;20453;-73
2022/12/26 08:06:37;;;;;;;59.73;4.40;;;;;;;;;;5033162;28;21000;-74
2022/12/26 08:09:04;;;;;;;60.80;4.93;;;;;;;;;;5032697;28;20453;-73
2022/12/26 08:11:33;;;;;;;59.10;3.80;;;;;;;;;;5033229;28;20483;-73
2022/12/26 08:14:00;;;;;;;59.20;4.60;;;;;;;;;;5033132;28;20449;-73
2022/12/26 08:16:27;;;;;;;59.27;4.10;;;;;;;;;;5033066;28;20445;-74
2022/12/26 08:18:56;;;;;;;60.27;4.00;;;;;;;;;;5031370;28;20453;-73
2022/12/26 08:21:23;;;;;;;58.97;3.90;;;;;;;;;;5030220;28;20492;-73
2022/12/26 08:23:50;;;;;;;60.03;4.40;;;;;;;;;;5033117;28;20451;-73
2022/12/26 08:26:21;;;;;;;59.30;4.37;;;;;;;;;;5032858;28;20484;-74
2022/12/26 08:28:49;;;;;;;60.27;4.50;;;;;;;;;;5032166;28;20464;-73
2022/12/26 08:31:16;;;;;;;59.30;4.70;;;;;;;;;;5032664;28;20489;-74
2022/12/26 08:33:43;;;;;;;59.57;4.67;;;;;;;;;;5032576;28;20441;-73
2022/12/26 08:36:12;;;;;;;58.80;4.17;;;;;;;;;;5049018;28;20933;-73
2022/12/26 08:38:40;;;;;;;59.30;4.43;;;;;;;;;;5051928;28;20480;-74
2022/12/26 08:41:07;;;;;;;60.17;5.13;;;;;;;;;;5052587;28;20817;-73
2022/12/26 08:43:35;;;;;;;58.80;4.27;;;;;;;;;;5052564;28;20456;-74
2022/12/26 08:46:03;;;;;;;61.47;4.70;;;;;;;;;;5052280;28;20487;-73
2022/12/26 08:48:30;;;;;;;60.20;4.87;;;;;;;;;;5052348;28;20453;-73
2022/12/26 08:50:58;;;;;;;58.90;3.80;;;;;;;;;;5052265;28;20563;-73
2022/12/26 08:53:27;;;;;;;58.70;4.03;;;;;;;;;;5032884;28;20449;-73
2022/12/26 08:55:55;;;;;;;59.37;4.40;;;;;;;;;;5032254;28;20562;-73
2022/12/26 08:58:22;;;;;;;60.07;5.13;;;;;;;;;;5032140;28;20453;-74
2022/12/26 09:00:49;;;;;;;59.50;4.33;;;;;;;;;;5031521;28;20469;-74
2022/12/26 09:03:16;;;;;;;59.30;4.70;;;;;;;;;;5032287;28;20437;-73
2022/12/26 09:05:44;;;;;;;60.00;4.33;;;;;;;;;;5032285;28;20925;-74
2022/12/26 09:08:11;;;;;;;60.47;5.30;;;;;;;;;;5032002;28;20485;-74
2022/12/26 09:10:39;;;;;;;59.60;4.77;;;;;;;;;;5031439;28;20469;-75
2022/12/26 09:13:07;;;;;;;60.53;5.00;;;;;;;;;;5031895;28;20961;-76
2022/12/26 09:15:34;;;;;;;59.50;4.70;;;;;;;;;;5031748;28;20460;-76
2022/12/26 09:18:01;;;;;;;138.97;50.37;;;;;;;;;;5031886;28;20464;-76
2022/12/26 09:20:28;;;;;;;64.63;7.70;;;;;;;;;;5031357;28;20477;-76
2022/12/26 09:22:55;;;;;;;60.37;5.37;;;;;;;;;;5028763;28;20457;-76
2022/12/26 09:25:23;;;;;;;61.40;5.40;;;;;;;;;;5031734;28;20451;-76
2022/12/26 09:27:52;;;;;;;62.27;5.63;;;;;;;;;;5031615;28;20445;-76
2022/12/26 09:30:20;;;;;;;61.07;6.10;;;;;;;;;;5030764;28;20447;-76
2022/12/26 09:32:47;;;;;;;63.00;5.90;;;;;;;;;;5031655;28;20950;-76
2022/12/26 09:35:14;;;;;;;62.23;6.50;;;;;;;;;;5031878;28;20452;-75
2022/12/26 09:37:42;;;;;;;60.83;6.03;;;;;;;;;;5031631;28;20454;-76
2022/12/26 09:40:12;;;;;;;59.90;5.63;;;;;;;;;;5030927;28;20441;-75
2022/12/26 09:42:43;;;;;;;61.87;6.40;;;;;;;;;;5031458;28;20524;-75
2022/12/26 09:45:14;;;;;;;61.17;6.03;;;;;;;;;;5031821;28;20827;-75
2022/12/26 09:47:47;;;;;;;61.73;6.50;;;;;;;;;;5031659;28;20493;-76
2022/12/26 09:50:16;;;;;;;64.00;7.20;;;;;;;;;;5030765;28;20818;-76
2022/12/26 09:52:47;;;;;;;63.47;6.97;;;;;;;;;;5031557;28;20449;-76
2022/12/26 09:55:22;;;;;;;62.57;6.80;;;;;;;;;;5028187;28;20930;-75
2022/12/26 09:57:51;;;;;;;62.50;7.17;;;;;;;;;;5031505;28;20955;-75
2022/12/26 10:00:20;;;;;;;60.90;6.27;;;;;;;;;;5030605;28;20835;-74
2022/12/26 10:02:50;;;;;;;60.73;6.33;;;;;;;;;;5031683;28;20449;-74
2022/12/26 10:05:17;;;;;;;64.67;6.90;;;;;;;;;;5031398;28;20819;-74
2022/12/26 10:07:46;;;;;;;64.97;7.53;;;;;;;;;;5031221;28;20481;-75
2022/12/26 10:10:15;;;;;;;64.97;7.83;;;;;;;;;;5030823;28;20464;-74
2022/12/26 10:12:55;;;;;;;66.10;10.50;;;;;;;;;;5031206;28;20453;-74
2022/12/26 10:15:32;;;;;;;67.90;12.67;;;;;;;;;;5031352;28;20524;-74
2022/12/26 10:18:05;;;;;;;65.37;9.90;;;;;;;;;;5031117;28;20451;-74
2022/12/26 10:20:36;;;;;;;65.77;9.47;;;;;;;;;;5030638;28;20473;-74
2022/12/26 10:23:25;;;;;;;65.00;10.37;;;;;;;;;;5031405;28;20476;-74
2022/12/26 10:25:54;;;;;;;67.33;9.27;;;;;;;;;;5028042;28;20475;-74
2022/12/26 10:28:27;;;;;;;64.20;8.63;;;;;;;;;;5035363;28;20480;-74
2022/12/26 10:30:58;;;;;;;66.17;8.90;;;;;;;;;;5034616;28;20575;-74
2022/12/26 10:33:30;;;;;;;63.87;8.20;;;;;;;;;;5034983;28;20461;-74
2022/12/26 10:35:58;;;;;;;62.97;8.27;;;;;;;;;;5035333;28;20725;-74
2022/12/26 10:38:29;;;;;;;65.87;9.20;;;;;;;;;;5034810;28;20946;-74
2022/12/26 10:40:59;;;;;;;64.60;8.70;;;;;;;;;;5034910;28;20484;-72
2022/12/26 10:43:28;;;;;;;66.60;9.90;;;;;;;;;;5034716;28;20540;-74
2022/12/26 10:46:04;;;;;;;64.17;7.80;;;;;;;;;;5034948;28;20484;-74
2022/12/26 10:48:31;;;;;;;68.03;10.23;;;;;;;;;;5034661;28;20453;-73
2022/12/26 10:50:58;;;;;;;67.53;10.70;;;;;;;;;;5034388;28;20471;-74
2022/12/26 10:53:25;;;;;;;68.07;9.13;;;;;;;;;;5034465;28;20449;-74
2022/12/26 10:55:52;;;;;;;65.37;8.87;;;;;;;;;;5034899;28;20455;-74
2022/12/26 10:58:20;;;;;;;65.00;10.23;;;;;;;;;;5031753;28;20827;-73
2022/12/26 11:00:47;;;;;;;66.17;9.97;;;;;;;;;;5034010;28;20469;-73
2022/12/26 11:03:17;;;;;;;73.63;11.70;;;;;;;;;;5034528;28;20545;-73
2022/12/26 11:05:45;;;;;;;66.30;8.67;;;;;;;;;;5034529;28;20818;-73
2022/12/26 11:08:17;;;;;;;63.07;7.23;;;;;;;;;;5033957;28;20492;-73
2022/12/26 11:10:46;;;;;;;62.90;9.00;;;;;;;;;;5033872;28;20473;-73
2022/12/26 11:13:18;;;;;;;74.30;12.30;;;;;;;;;;5034576;28;20453;-74
2022/12/26 11:15:49;;;;;;;64.40;8.93;;;;;;;;;;5034894;28;20453;-75
2022/12/26 11:18:22;;;;;;;67.90;9.70;;;;;;;;;;5034157;28;20444;-75
2022/12/26 11:20:50;;;;;;;64.50;7.43;;;;;;;;;;5033833;28;20477;-75
2022/12/26 11:23:26;;;;;;;62.90;7.77;;;;;;;;;;5034233;28;20454;-72
2022/12/26 11:25:54;;;;;;;64.60;7.83;;;;;;;;;;5034110;28;20941;-72
2022/12/26 11:28:32;;;;;;;63.40;8.47;;;;;;;;;;5030819;28;20481;-73
2022/12/26 11:30:59;;;;;;;63.00;6.90;;;;;;;;;;5033887;28;21010;-73
2022/12/26 11:33:30;;;;;;;61.07;6.43;;;;;;;;;;5034211;28;20453;-74
2022/12/26 11:36:02;;;;;;;61.30;5.83;;;;;;;;;;5034203;28;20449;-73
2022/12/26 11:38:35;;;;;;;63.07;7.33;;;;;;;;;;5032414;28;20454;-73
2022/12/26 11:43:49;;;;;;;66.43;8.77;;;;;;;;;;5033901;28;20416;-74
2022/12/26 11:46:17;;;;;;;72.87;13.77;;;;;;;;;;5033608;28;20956;-74
2022/12/26 11:48:49;;;;;;;77.70;16.17;;;;;;;;;;5033086;28;20844;-74
2022/12/26 11:51:17;;;;;;;69.20;10.50;;;;;;;;;;5033356;28;20479;-74
2022/12/26 11:53:44;;;;;;;61.90;7.20;;;;;;;;;;5033342;28;20472;-73
2022/12/26 11:56:11;;;;;;;62.07;7.10;;;;;;;;;;5033669;28;20445;-75
2022/12/26 11:58:38;;;;;;;66.83;9.40;;;;;;;;;;5032690;28;20493;-74
2022/12/26 12:01:23;;;;;;;60.83;5.40;;;;;;;;;;5049089;28;20808;-75
2022/12/26 12:03:52;;;;;;;60.10;5.17;;;;;;;;;;5053363;28;20452;-75
2022/12/26 12:06:28;;;;;;;59.50;4.63;;;;;;;;;;5053195;28;20979;-75
2022/12/26 12:08:59;;;;;;;62.43;4.50;;;;;;;;;;5052491;28;20814;-76
2022/12/26 12:11:29;;;;;;;59.77;4.20;;;;;;;;;;5053218;28;20554;-75
2022/12/26 12:14:15;;;;;;;60.47;5.13;;;;;;;;;;5053281;28;20450;-76
2022/12/26 12:16:46;;;;;;;59.10;3.90;;;;;;;;;;5052935;28;20451;-75
2022/12/26 12:19:21;;;;;;;59.87;4.13;;;;;;;;;;5052540;28;20453;-76
2022/12/26 12:21:56;;;;;;;61.67;4.40;;;;;;;;;;5053058;28;20506;-76
2022/12/26 12:24:29;;;;;;;60.87;4.20;;;;;;;;;;5052999;28;20452;-76
2022/12/26 12:27:01;;;;;;;59.50;4.13;;;;;;;;;;5052854;28;20498;-79
2022/12/26 12:29:39;;;;;;;59.30;4.37;;;;;;;;;;5051797;28;20877;-77
2022/12/26 12:32:09;;;;;;;61.30;4.90;;;;;;;;;;5040750;28;20484;-77
2022/12/26 12:34:48;;;;;;;60.17;4.37;;;;;;;;;;5036472;28;20451;-77
2022/12/26 12:37:21;;;;;;;59.00;3.93;;;;;;;;;;5034076;28;20456;-76
2022/12/26 12:39:59;;;;;;;58.57;4.10;;;;;;;;;;5033385;28;20453;-76
2022/12/26 12:42:34;;;;;;;60.67;4.60;;;;;;;;;;5033388;28;20469;-76
2022/12/26 12:45:09;;;;;;;59.80;3.90;;;;;;;;;;5032710;28;20445;-70
2022/12/26 12:47:42;;;;;;;59.97;4.20;;;;;;;;;;5032383;28;20480;-72
2022/12/26 12:50:14;;;;;;;58.17;3.73;;;;;;;;;;5031229;28;20449;-72
2022/12/26 12:52:48;;;;;;;58.30;3.60;;;;;;;;;;5032559;28;20464;-73
2022/12/26 12:55:22;;;;;;;60.47;3.83;;;;;;;;;;5032449;28;21032;-72
2022/12/26 12:57:52;;;;;;;61.70;4.00;;;;;;;;;;5032599;28;20456;-73
2022/12/26 13:00:20;;;;;;;58.90;3.97;;;;;;;;;;5031348;28;20449;-73
2022/12/26 13:02:51;;;;;;;59.80;3.80;;;;;;;;;;5032358;28;20487;-73
2022/12/26 13:05:34;;;;;;;58.43;3.40;;;;;;;;;;5032205;28;20449;-73
2022/12/26 13:08:03;;;;;;;59.20;3.90;;;;;;;;;;5032123;28;20575;-73
2022/12/26 13:10:33;;;;;;;60.83;3.80;;;;;;;;;;5031358;28;20473;-73
2022/12/26 13:13:01;;;;;;;59.30;3.97;;;;;;;;;;5031926;28;20450;-74
2022/12/26 13:15:32;;;;;;;58.63;3.67;;;;;;;;;;5031930;28;20445;-73
2022/12/26 13:18:03;;;;;;;59.10;3.90;;;;;;;;;;5032068;28;20451;-73
2022/12/26 13:20:35;;;;;;;58.80;3.23;;;;;;;;;;5031335;28;20512;-74
2022/12/26 13:25:52;;;;;;;57.77;3.33;;;;;;;;;;5011976;28;20417;-74
2022/12/26 13:28:21;;;;;;;58.90;3.77;;;;;;;;;;5011874;28;21014;-74
2022/12/26 13:30:52;;;;;;;59.57;3.20;;;;;;;;;;5011312;28;20488;-75
2022/12/26 13:33:20;;;;;;;58.47;3.00;;;;;;;;;;5012096;28;20846;-74
2022/12/26 13:35:53;;;;;;;59.27;3.60;;;;;;;;;;5012379;28;20935;-75
2022/12/26 13:38:21;;;;;;;58.47;3.13;;;;;;;;;;5011898;28;20446;-75
2022/12/26 13:40:50;;;;;;;58.57;3.37;;;;;;;;;;5011124;28;20480;-75
2022/12/26 13:46:05;;;;;;;59.47;3.17;;;;;;;;;;5011980;28;20497;-76
2022/12/26 13:49:02;;;;;;;58.00;2.90;;;;;;;;;;5011153;28;20490;-76
2022/12/26 13:51:48;;;;;;;58.47;3.33;;;;;;;;;;5011575;28;20469;-76
2022/12/26 13:54:17;;;;;;;58.10;3.30;;;;;;;;;;5011867;28;20530;-76
2022/12/26 13:57:02;;;;;;;57.80;2.80;;;;;;;;;;5028018;28;20532;-76
2022/12/26 13:59:32;;;;;;;57.77;3.10;;;;;;;;;;5030805;28;20467;-76
2022/12/26 14:02:18;;;;;;;58.10;3.07;;;;;;;;;;5030748;28;20929;-76
2022/12/26 14:04:51;;;;;;;58.00;2.90;;;;;;;;;;5031395;28;20460;-76
2022/12/26 14:07:24;;;;;;;57.70;2.90;;;;;;;;;;5031215;28;20488;-76
2022/12/26 14:10:02;;;;;;;61.03;3.20;;;;;;;;;;5030742;28;20942;-77
2022/12/26 14:12:42;;;;;;;59.57;3.20;;;;;;;;;;5031466;28;20479;-75
2022/12/26 14:15:20;;;;;;;58.77;2.97;;;;;;;;;;5031472;28;20459;-76
2022/12/26 14:17:52;;;;;;;57.73;2.83;;;;;;;;;;5031544;28;20463;-76
2022/12/26 14:20:26;;;;;;;58.00;2.83;;;;;;;;;;5030671;28;20499;-76
2022/12/26 14:23:00;;;;;;;58.77;2.83;;;;;;;;;;5031195;28;20457;-77
2022/12/26 14:25:31;;;;;;;57.87;2.93;;;;;;;;;;5030864;28;20456;-76
2022/12/26 14:28:01;;;;;;;58.37;2.80;;;;;;;;;;5028017;28;20491;-77
2022/12/26 14:30:31;;;;;;;59.83;3.10;;;;;;;;;;5030461;28;20481;-75
2022/12/26 14:33:07;;;;;;;58.40;3.17;;;;;;;;;;5031399;28;20449;-78
2022/12/26 14:35:36;;;;;;;58.60;3.30;;;;;;;;;;5031374;28;20449;-75
2022/12/26 14:38:10;;;;;;;58.60;3.30;;;;;;;;;;5031135;28;20453;-78
2022/12/26 14:40:39;;;;;;;58.60;3.60;;;;;;;;;;5030856;28;20495;-76
2022/12/26 14:43:24;;;;;;;58.27;3.63;;;;;;;;;;5030982;28;20463;-77
2022/12/26 14:45:52;;;;;;;58.30;3.23;;;;;;;;;;5031411;28;20460;-77
2022/12/26 14:48:37;;;;;;;58.20;2.90;;;;;;;;;;5031248;28;20484;-77
2022/12/26 14:51:19;;;;;;;58.50;3.43;;;;;;;;;;5031158;28;20542;-77
2022/12/26 14:53:47;;;;;;;57.87;2.90;;;;;;;;;;5031071;28;20453;-78
2022/12/26 14:56:35;;;;;;;57.70;3.00;;;;;;;;;;5031200;28;20453;-77
2022/12/26 14:59:17;;;;;;;60.73;3.17;;;;;;;;;;5022039;28;20469;-77
2022/12/26 15:01:50;;;;;;;58.80;3.27;;;;;;;;;;5031084;28;20492;-77
2022/12/26 15:04:22;;;;;;;63.57;3.50;;;;;;;;;;5031036;28;20861;-76
2022/12/26 15:07:06;;;;;;;57.97;2.97;;;;;;;;;;5031047;28;20456;-77
2022/12/26 15:09:51;;;;;;;57.80;3.10;;;;;;;;;;5030075;28;20979;-77
2022/12/26 15:12:30;;;;;;;58.20;3.37;;;;;;;;;;4992703;28;20473;-77
2022/12/26 15:15:17;;;;;;;58.30;3.20;;;;;;;;;;5034435;28;20452;-77
2022/12/26 15:17:51;;;;;;;58.40;3.47;;;;;;;;;;5028227;28;21164;-77
2022/12/26 15:20:38;;;;;;;59.30;3.20;;;;;;;;;;5033815;28;20451;-77
2022/12/26 15:23:20;;;;;;;58.60;3.60;;;;;;;;;;5028615;28;20522;-77
2022/12/26 15:26:11;;;;;;;58.60;3.13;;;;;;;;;;5034901;28;20516;-77
2022/12/26 15:28:57;;;;;;;58.90;3.77;;;;;;;;;;5014331;28;20484;-77
2022/12/26 15:31:36;;;;;;;57.83;3.27;;;;;;;;;;5031905;28;20483;-77
2022/12/26 15:34:10;;;;;;;58.70;3.40;;;;;;;;;;5034520;28;20445;-77
2022/12/26 15:36:42;;;;;;;58.47;3.47;;;;;;;;;;5034194;28;20457;-77
2022/12/26 15:39:16;;;;;;;58.37;3.23;;;;;;;;;;5033527;28;20438;-77
2022/12/26 15:41:46;;;;;;;57.90;3.10;;;;;;;;;;5034110;28;20483;-77
2022/12/26 15:44:19;;;;;;;59.27;3.77;;;;;;;;;;5033725;28;20457;-77
2022/12/26 15:46:50;;;;;;;59.37;3.23;;;;;;;;;;5033839;28;20434;-77
2022/12/26 15:49:24;;;;;;;58.40;3.43;;;;;;;;;;5033059;28;20499;-77
2022/12/26 15:51:56;;;;;;;58.60;2.90;;;;;;;;;;5033844;28;20468;-77
2022/12/26 15:54:29;;;;;;;59.20;3.60;;;;;;;;;;5034140;28;20440;-77
2022/12/26 15:57:06;;;;;;;58.10;3.23;;;;;;;;;;5033798;28;20789;-77
2022/12/26 15:59:46;;;;;;;58.30;2.83;;;;;;;;;;5032917;28;20445;-77
2022/12/26 16:02:14;;;;;;;58.10;3.10;;;;;;;;;;5047611;28;20555;-77
2022/12/26 16:04:44;;;;;;;59.30;3.40;;;;;;;;;;5053490;28;20459;-77
2022/12/26 16:07:21;;;;;;;58.43;3.03;;;;;;;;;;5053840;28;20448;-77
2022/12/26 16:09:51;;;;;;;58.60;3.27;;;;;;;;;;5052940;28;20591;-77
2022/12/26 16:12:23;;;;;;;57.80;3.33;;;;;;;;;;5053377;28;20472;-77
2022/12/26 16:14:59;;;;;;;58.03;3.20;;;;;;;;;;5053837;28;20448;-77
2022/12/26 16:17:26;;;;;;;58.07;3.27;;;;;;;;;;5053487;28;20452;-77
2022/12/26 16:19:55;;;;;;;57.97;3.13;;;;;;;;;;5053222;28;20498;-77
2022/12/26 16:22:43;;;;;;;58.20;3.20;;;;;;;;;;5053496;28;20471;-77
2022/12/26 16:25:12;;;;;;;58.60;2.90;;;;;;;;;;5052496;28;20444;-75
2022/12/26 16:27:40;;;;;;;59.90;3.27;;;;;;;;;;5052525;28;20460;-76
2022/12/26 16:30:08;;;;;;;57.73;3.20;;;;;;;;;;5052087;28;20535;-76
2022/12/26 16:32:37;;;;;;;61.80;3.47;;;;;;;;;;5042568;28;20465;-76
2022/12/26 16:35:06;;;;;;;59.53;3.50;;;;;;;;;;5032793;28;20472;-77
2022/12/26 16:37:34;;;;;;;57.60;3.07;;;;;;;;;;5033440;28;20469;-76
2022/12/26 16:40:16;;;;;;;59.87;3.73;;;;;;;;;;5032169;28;20572;-77
2022/12/26 16:42:56;;;;;;;58.10;3.13;;;;;;;;;;5033036;28;20453;-76
2022/12/26 16:45:24;;;;;;;59.80;3.50;;;;;;;;;;5033315;28;20488;-76
2022/12/26 16:47:51;;;;;;;59.10;3.30;;;;;;;;;;5033161;28;20457;-77
2022/12/26 16:50:20;;;;;;;58.27;3.20;;;;;;;;;;5032065;28;20464;-77
2022/12/26 16:52:48;;;;;;;58.60;3.60;;;;;;;;;;5032813;28;20484;-77
2022/12/26 16:55:25;;;;;;;58.00;3.10;;;;;;;;;;5032811;28;20449;-77
2022/12/26 16:57:55;;;;;;;58.50;3.43;;;;;;;;;;5032490;28;20472;-77